createdAt,value
2018-08-23T00:01:37.515Z,20.20
2018-08-23T00:06:52.253Z,20.20
2018-08-23T00:11:56.249Z,20.30
2018-08-23T00:17:00.439Z,20.30
2018-08-23T00:22:04.071Z,20.20
2018-08-23T00:27:07.826Z,20.20
2018-08-23T00:32:11.248Z,20.10
2018-08-23T00:37:15.523Z,20.10
2018-08-23T00:42:19.246Z,20.10
2018-08-23T00:47:26.224Z,20.00
2018-08-23T00:52:40.644Z,20.00
2018-08-23T00:57:45.912Z,19.90
2018-08-23T01:02:52.068Z,19.90
2018-08-23T01:07:56.343Z,19.90
2018-08-23T01:13:04.199Z,19.90
2018-08-23T01:18:20.359Z,19.90
2018-08-23T01:23:24.152Z,19.90
2018-08-23T01:28:28.199Z,19.90
2018-08-23T01:33:31.728Z,20.00
2018-08-23T01:38:35.462Z,20.10
2018-08-23T01:43:39.154Z,20.00
2018-08-23T01:48:47.838Z,19.80
2018-08-23T01:53:52.503Z,20.00
2018-08-23T01:58:56.657Z,20.00
2018-08-23T02:04:00.340Z,19.90
2018-08-23T02:09:06.746Z,19.90
2018-08-23T02:14:10.150Z,19.80
2018-08-23T02:19:13.931Z,19.80
2018-08-23T02:24:20.780Z,19.90
2018-08-23T02:29:36.033Z,19.90
2018-08-23T02:34:39.593Z,19.90
2018-08-23T02:39:43.928Z,19.90
2018-08-23T02:44:47.675Z,19.90
2018-08-23T02:49:52.068Z,19.90
2018-08-23T02:54:55.656Z,20.00
2018-08-23T02:59:59.668Z,19.80
2018-08-23T03:05:03.402Z,19.80
2018-08-23T03:10:06.917Z,19.80
2018-08-23T03:15:10.301Z,19.80
2018-08-23T03:20:19.163Z,19.70
2018-08-23T03:25:24.274Z,19.80
2018-08-23T03:30:28.540Z,19.80
2018-08-23T03:35:32.118Z,19.80
2018-08-23T03:40:35.520Z,19.80
2018-08-23T03:45:38.921Z,19.80
2018-08-23T03:50:48.023Z,19.70
2018-08-23T03:56:06.507Z,19.70
2018-08-23T04:01:13.288Z,19.60
2018-08-23T04:06:37.632Z,19.70
2018-08-23T04:11:41.287Z,19.70
2018-08-23T04:16:45.170Z,19.70
2018-08-23T04:21:49.339Z,19.70
2018-08-23T04:26:53.671Z,19.70
2018-08-23T04:31:57.491Z,19.60
2018-08-23T04:37:01.331Z,19.60
2018-08-23T04:42:04.950Z,19.60
2018-08-23T04:47:08.462Z,19.60
2018-08-23T04:52:12.126Z,19.40
2018-08-23T04:57:16.140Z,19.50
2018-08-23T05:02:20.040Z,19.50
2018-08-23T05:07:24.225Z,19.50
2018-08-23T05:12:27.967Z,19.50
2018-08-23T05:17:32.759Z,19.40
2018-08-23T05:22:36.813Z,19.50
2018-08-23T05:27:57.663Z,19.50
2018-08-23T05:33:05.959Z,19.50
2018-08-23T05:38:10.165Z,19.50
2018-08-23T05:43:14.792Z,19.40
2018-08-23T05:48:24.567Z,19.40
2018-08-23T05:53:28.707Z,19.40
2018-08-23T05:58:33.452Z,19.40
2018-08-23T06:03:37.386Z,19.40
2018-08-23T06:08:48.307Z,19.50
2018-08-23T06:13:52.454Z,19.50
2018-08-23T06:18:56.354Z,19.50
2018-08-23T06:24:04.044Z,19.50
2018-08-23T06:29:08.009Z,19.60
2018-08-23T06:34:11.777Z,19.50
2018-08-23T06:39:15.624Z,19.60
2018-08-23T06:44:21.962Z,19.70
2018-08-23T06:49:27.210Z,19.50
2018-08-23T06:54:31.393Z,19.60
2018-08-23T06:59:38.022Z,19.80
2018-08-23T07:04:41.778Z,20.20
2018-08-23T07:09:45.978Z,20.10
2018-08-23T07:14:51.957Z,20.20
2018-08-23T07:20:01.716Z,20.30
2018-08-23T07:25:12.337Z,20.50
2018-08-23T07:30:18.571Z,20.40
2018-08-23T07:35:22.364Z,20.40
2018-08-23T07:40:28.786Z,20.30
2018-08-23T07:45:33.530Z,20.20
2018-08-23T07:55:48.517Z,20.20
2018-08-23T08:00:52.229Z,20.40
2018-08-23T08:05:58.756Z,20.60
2018-08-23T08:11:03.842Z,20.50
2018-08-23T08:16:17.234Z,20.40
2018-08-23T08:21:21.479Z,20.40
2018-08-23T08:26:29.372Z,20.30
2018-08-23T08:31:34.915Z,20.50
2018-08-23T08:36:39.168Z,20.50
2018-08-23T08:41:43.232Z,20.60
2018-08-23T08:46:47.761Z,20.60
2018-08-23T08:51:52.953Z,20.70
2018-08-23T08:56:58.223Z,20.70
2018-08-23T09:02:02.555Z,20.70
2018-08-23T09:07:08.490Z,20.70
2018-08-23T09:12:13.837Z,20.80
2018-08-23T09:17:34.679Z,20.90
2018-08-23T09:22:55.846Z,21.10
2018-08-23T09:28:00.031Z,21.00
2018-08-23T09:33:08.795Z,21.00
2018-08-23T09:38:15.126Z,21.10
2018-08-23T09:43:20.279Z,21.00
2018-08-23T09:48:25.797Z,21.10
2018-08-23T09:53:30.087Z,21.20
2018-08-23T09:58:40.992Z,21.40
2018-08-23T10:03:50.519Z,21.50
2018-08-23T10:09:10.899Z,21.80
2018-08-23T10:14:18.237Z,21.70
2018-08-23T10:19:27.891Z,21.60
2018-08-23T10:24:34.108Z,21.70
2018-08-23T10:29:38.523Z,21.60
2018-08-23T10:34:42.623Z,21.50
2018-08-23T10:39:47.579Z,21.60
2018-08-23T10:44:51.734Z,21.50
2018-08-23T10:50:09.057Z,21.50
2018-08-23T10:55:17.432Z,21.30
2018-08-23T11:00:21.474Z,21.30
2018-08-23T11:05:25.744Z,21.30
2018-08-23T11:10:35.193Z,21.20
2018-08-23T11:15:39.410Z,21.20
2018-08-23T11:20:44.543Z,21.40
2018-08-23T11:25:48.575Z,21.50
2018-08-23T11:30:53.173Z,21.50
2018-08-23T11:35:57.227Z,21.60
2018-08-23T11:41:01.280Z,21.50
2018-08-23T11:46:10.916Z,21.70
2018-08-23T11:51:15.888Z,21.80
2018-08-23T11:56:19.954Z,22.00
2018-08-23T12:01:23.945Z,22.10
2018-08-23T12:06:27.972Z,22.00
2018-08-23T12:11:31.830Z,22.10
2018-08-23T12:16:36.085Z,22.30
2018-08-23T12:21:40.234Z,22.50
2018-08-23T12:26:44.932Z,22.60
2018-08-23T12:31:49.235Z,22.50
2018-08-23T12:36:58.452Z,22.60
2018-08-23T12:42:07.941Z,22.70
2018-08-23T12:47:14.104Z,22.60
2018-08-23T12:52:19.022Z,22.60
2018-08-23T12:57:22.871Z,22.60
2018-08-23T13:02:27.469Z,22.60
2018-08-23T13:07:31.241Z,22.60
2018-08-23T13:12:35.607Z,22.60
2018-08-23T13:17:40.024Z,22.60
2018-08-23T13:22:44.310Z,22.60
2018-08-23T13:27:48.364Z,22.60
2018-08-23T13:32:52.272Z,22.40
2018-08-23T13:37:56.468Z,22.40
2018-08-23T13:43:01.637Z,22.50
2018-08-23T13:48:05.889Z,22.40
2018-08-23T13:53:10.505Z,22.50
2018-08-23T13:58:14.773Z,22.50
2018-08-23T14:03:18.785Z,22.50
2018-08-23T14:08:22.918Z,22.70
2018-08-23T14:13:27.232Z,22.60
2018-08-23T14:18:32.769Z,22.70
2018-08-23T14:23:36.966Z,22.90
2018-08-23T14:28:41.116Z,22.90
2018-08-23T14:33:45.789Z,23.00
2018-08-23T14:38:51.082Z,22.90
2018-08-23T14:43:55.243Z,22.90
2018-08-23T14:49:00.279Z,22.90
2018-08-23T14:54:08.457Z,22.90
2018-08-23T14:59:13.609Z,22.70
2018-08-23T15:04:17.637Z,22.70
2018-08-23T15:09:22.243Z,22.50
2018-08-23T15:14:26.349Z,22.60
2018-08-23T15:19:30.600Z,22.50
2018-08-23T15:24:35.287Z,22.60
2018-08-23T15:29:39.240Z,22.70
2018-08-23T15:34:43.495Z,22.70
2018-08-23T15:39:47.648Z,22.70
2018-08-23T15:44:51.716Z,22.70
2018-08-23T15:49:55.950Z,22.80
2018-08-23T15:55:00.108Z,22.80
2018-08-23T16:00:04.127Z,22.80
2018-08-23T16:05:08.153Z,22.70
2018-08-23T16:10:12.464Z,22.60
2018-08-23T16:15:20.616Z,22.50
2018-08-23T16:20:30.456Z,22.50
2018-08-23T16:25:39.930Z,22.40
2018-08-23T16:30:44.604Z,22.30
2018-08-23T16:35:48.529Z,22.40
2018-08-23T16:40:52.620Z,22.40
2018-08-23T16:45:56.488Z,22.50
2018-08-23T16:51:00.413Z,22.30
2018-08-23T16:56:04.409Z,22.40
2018-08-23T17:01:08.866Z,22.40
2018-08-23T17:06:13.348Z,22.20
2018-08-23T17:11:17.218Z,22.30
2018-08-23T17:16:26.549Z,22.20
2018-08-23T17:21:30.768Z,22.10
2018-08-23T17:26:34.821Z,22.00
2018-08-23T17:31:39.694Z,22.00
2018-08-23T17:36:43.727Z,22.00
2018-08-23T17:41:48.104Z,21.90
2018-08-23T17:46:52.072Z,21.90
2018-08-23T17:51:56.047Z,21.70
2018-08-23T17:56:59.988Z,21.70
2018-08-23T18:02:04.519Z,21.60
2018-08-23T18:07:08.915Z,21.20
2018-08-23T18:12:13.131Z,21.10
2018-08-23T18:17:17.061Z,21.20
2018-08-23T18:22:20.992Z,20.80
2018-08-23T18:27:24.855Z,20.90
2018-08-23T18:32:29.137Z,21.00
2018-08-23T18:37:33.384Z,20.90
2018-08-23T18:42:38.521Z,20.80
2018-08-23T18:47:43.428Z,20.80
2018-08-23T18:52:47.500Z,20.70
2018-08-23T18:57:51.519Z,20.70
2018-08-23T19:02:55.396Z,20.70
2018-08-23T19:07:59.728Z,20.60
2018-08-23T19:13:03.844Z,20.40
2018-08-23T19:18:09.550Z,20.30
2018-08-23T19:23:13.657Z,20.20
2018-08-23T19:28:18.235Z,20.10
2018-08-23T19:33:22.187Z,20.00
2018-08-23T19:43:39.962Z,20.00
2018-08-23T19:48:45.729Z,19.90
2018-08-23T19:53:49.627Z,19.80
2018-08-23T19:58:53.525Z,19.80
2018-08-23T20:03:57.584Z,19.60
2018-08-23T20:09:01.504Z,19.50
2018-08-23T20:14:05.575Z,19.50
2018-08-23T20:19:09.859Z,19.30
2018-08-23T20:24:14.818Z,19.30
2018-08-23T20:29:19.456Z,19.20
2018-08-23T20:34:24.188Z,19.00
2018-08-23T20:39:28.512Z,18.80
2018-08-23T20:44:32.541Z,18.50
2018-08-23T20:49:36.664Z,18.60
2018-08-23T20:54:44.890Z,18.60
2018-08-23T20:59:49.032Z,18.60
2018-08-23T21:04:54.039Z,18.70
2018-08-23T21:09:58.046Z,18.60
2018-08-23T21:15:02.015Z,18.60
2018-08-23T21:20:07.439Z,18.50
2018-08-23T21:25:11.874Z,18.60
2018-08-23T21:30:15.955Z,18.60
2018-08-23T21:35:19.856Z,18.70
2018-08-23T21:40:24.207Z,18.50
2018-08-23T21:45:28.343Z,18.40
2018-08-23T21:50:32.847Z,18.40
2018-08-23T21:55:39.215Z,18.20
2018-08-23T22:00:48.493Z,18.40
2018-08-23T22:05:52.566Z,18.50
2018-08-23T22:10:56.942Z,18.40
2018-08-23T22:16:00.823Z,18.50
2018-08-23T22:21:08.595Z,18.50
2018-08-23T22:26:13.295Z,18.50
2018-08-23T22:31:17.962Z,18.40
2018-08-23T22:36:22.140Z,18.50
2018-08-23T22:41:26.032Z,18.40
2018-08-23T22:46:30.391Z,18.40
2018-08-23T22:51:34.839Z,18.40
2018-08-23T22:56:40.152Z,18.10
2018-08-23T23:01:44.263Z,18.50
2018-08-23T23:06:48.335Z,18.50
2018-08-23T23:11:52.256Z,18.60
2018-08-23T23:16:56.187Z,18.60
2018-08-23T23:22:00.399Z,18.60
2018-08-23T23:27:04.688Z,18.40
2018-08-23T23:32:08.763Z,18.50
2018-08-23T23:37:13.102Z,18.40
2018-08-23T23:42:17.121Z,18.50
2018-08-23T23:47:21.163Z,18.40
2018-08-23T23:52:25.600Z,18.30
2018-08-23T23:57:30.187Z,18.30
